Time;durP1;ratioP1;P1;durP2;ratioP2;P2;SDS_P1;SDS_P2;PMS_P1;PMS_P2;Temp;Humidity;BMP_temperature;BMP_pressure;BME280_temperature;BME280_humidity;BME280_pressure;Samples;Min_cycle;Max_cycle;Signal;HPM_P1;HPM_P2
2023/09/14 00:03:15;;;;;;;3.80;2.78;;;;;;;19.43;61.41;99763.56;4976218;28;20457;-91
2023/09/14 00:09:06;;;;;;;1.42;1.10;;;;;;;19.41;61.10;99768.09;4973847;28;20501;-92
2023/09/14 00:14:53;;;;;;;5.82;1.75;;;;;;;19.65;61.06;99800.78;4975719;28;20041;-90
2023/09/14 00:17:19;;;;;;;1.40;1.30;;;;;;;19.48;61.24;99774.03;4975647;28;20420;-95
2023/09/14 00:19:44;;;;;;;1.85;1.45;;;;;;;19.68;61.36;99802.44;4938986;29;20574;-93
2023/09/14 00:22:10;;;;;;;1.60;1.27;;;;;;;19.54;61.09;99781.75;4937637;28;20065;-93
2023/09/14 00:24:36;;;;;;;1.35;1.23;;;;;;;19.63;61.18;99789.31;4954985;29;20037;-92
2023/09/14 00:27:03;;;;;;;2.17;1.70;;;;;;;19.37;61.29;99758.53;4937957;28;20035;-94
2023/09/14 00:29:29;;;;;;;1.33;1.00;;;;;;;19.38;61.43;99762.06;4965266;28;20030;-92
2023/09/14 00:31:56;;;;;;;2.33;2.13;;;;;;;19.27;61.81;99749.22;4964896;28;20100;-90
2023/09/14 00:34:42;;;;;;;10.15;2.58;;;;;;;20.01;61.29;99845.38;4955409;29;20031;-89
2023/09/14 00:37:15;;;;;;;3.13;1.48;;;;;;;19.58;61.30;99803.84;4956110;29;20093;-87
2023/09/14 00:39:55;;;;;;;0.88;0.88;;;;;;;19.73;61.17;99815.59;4955888;29;20520;-88
2023/09/14 00:45:47;;;;;;;3.15;2.65;;;;;;;19.31;61.58;99777.56;4969366;28;20049;-89
2023/09/14 00:48:13;;;;;;;4.95;2.53;;;;;;;19.35;62.31;99776.44;4975294;28;20383;-91
2023/09/14 00:50:40;;;;;;;3.28;2.35;;;;;;;19.31;62.04;99775.72;4973413;28;20038;-91
2023/09/14 00:53:11;;;;;;;1.00;0.95;;;;;;;19.35;61.80;99784.47;4944108;28;20062;-91
2023/09/14 00:55:38;;;;;;;4.57;1.67;;;;;;;19.40;61.68;99790.47;4956900;28;20035;-90
2023/09/14 00:58:04;;;;;;;6.55;1.65;;;;;;;19.18;62.01;99752.34;4955977;28;20040;-91
2023/09/14 01:00:31;;;;;;;2.08;1.67;;;;;;;19.27;61.72;99786.66;4965461;28;20043;-90
2023/09/14 01:02:58;;;;;;;2.88;1.77;;;;;;;19.28;61.79;99796.44;4954563;29;20081;-90
2023/09/14 01:05:28;;;;;;;2.85;2.28;;;;;;;19.25;61.99;99792.09;4956775;28;20497;-89
2023/09/14 01:07:54;;;;;;;7.60;0.90;;;;;;;18.93;62.22;99738.38;4973204;28;20117;-89
2023/09/14 01:10:20;;;;;;;3.42;1.95;;;;;;;19.17;61.93;99790.72;4972769;28;20047;-90
2023/09/14 01:12:47;;;;;;;2.83;1.77;;;;;;;19.25;61.58;99796.56;4953958;29;20031;-90
2023/09/14 01:15:25;;;;;;;3.35;2.30;;;;;;;19.50;61.65;99842.53;4954618;29;20035;-89
2023/09/14 01:18:11;;;;;;;5.25;1.98;;;;;;;19.41;61.89;99840.31;4953821;28;20126;-89
2023/09/14 01:20:36;;;;;;;3.75;1.42;;;;;;;19.43;61.62;99834.91;4953749;28;20067;-91
2023/09/14 01:23:25;;;;;;;2.10;1.77;;;;;;;19.46;61.44;99850.78;4954777;28;20035;-90
2023/09/14 01:25:52;;;;;;;1.15;0.93;;;;;;;19.05;61.13;99777.03;4897768;29;20056;-90
2023/09/14 01:28:19;;;;;;;3.65;1.77;;;;;;;19.01;61.37;99767.41;4913252;29;20040;-90
2023/09/14 01:30:45;;;;;;;1.80;1.25;;;;;;;19.06;61.32;99796.59;4913360;29;20059;-91
2023/09/14 01:33:13;;;;;;;1.58;1.48;;;;;;;18.78;61.56;99742.66;4912502;29;20114;-91
2023/09/14 01:36:03;;;;;;;1.50;1.40;;;;;;;19.28;61.35;99836.53;4913333;29;20495;-91
2023/09/14 01:38:30;;;;;;;1.15;1.05;;;;;;;18.48;62.20;99763.66;4902108;29;20594;-90
2023/09/14 01:40:56;;;;;;;1.92;1.73;;;;;;;18.57;62.39;99783.75;4896233;29;20063;-90
2023/09/14 01:43:24;;;;;;;2.55;1.27;;;;;;;18.74;62.46;99823.88;4913211;29;20140;-91
2023/09/14 01:45:51;;;;;;;3.63;1.92;;;;;;;18.48;62.29;99778.81;4897756;29;20044;-89
2023/09/14 01:48:19;;;;;;;5.22;2.15;;;;;;;18.53;62.70;99774.13;4903068;29;20041;-91
2023/09/14 01:50:47;;;;;;;2.72;1.45;;;;;;;18.63;62.64;99798.59;4894475;29;20052;-90
2023/09/14 01:53:13;;;;;;;2.03;1.33;;;;;;;18.65;62.16;99781.56;4894276;29;20119;-92
2023/09/14 01:55:38;;;;;;;1.55;1.38;;;;;;;18.87;62.33;99826.88;4911486;29;20094;-93
2023/09/14 01:58:04;;;;;;;1.67;1.58;;;;;;;18.78;62.01;99800.53;4912788;29;20072;-92
2023/09/14 02:00:29;;;;;;;2.90;0.95;;;;;;;18.77;61.68;99798.84;4897327;29;20087;-92
2023/09/14 02:02:55;;;;;;;1.90;1.10;;;;;;;18.72;62.01;99816.88;4944714;28;20046;-90
2023/09/14 02:05:21;;;;;;;2.50;1.42;;;;;;;18.56;61.89;99769.50;4973002;28;20217;-89
2023/09/14 02:07:46;;;;;;;1.63;1.42;;;;;;;18.48;62.31;99776.16;4954625;28;20453;-90
2023/09/14 02:10:13;;;;;;;3.17;2.00;;;;;;;18.59;61.89;99795.22;4954992;28;20034;-92
2023/09/14 02:12:39;;;;;;;6.32;2.20;;;;;;;18.49;62.36;99789.44;4970016;28;20486;-91
2023/09/14 02:15:05;;;;;;;1.50;1.40;;;;;;;18.61;62.00;99815.59;4954816;28;20054;-91
2023/09/14 02:17:31;;;;;;;1.63;1.40;;;;;;;18.60;62.08;99829.88;4971200;28;20505;-90
2023/09/14 02:19:58;;;;;;;1.95;1.60;;;;;;;18.45;62.09;99779.81;4972006;28;20046;-89
2023/09/14 02:22:23;;;;;;;3.00;1.50;;;;;;;18.36;62.68;99794.44;4972157;28;20062;-90
2023/09/14 02:24:49;;;;;;;2.05;1.85;;;;;;;18.54;62.29;99821.28;4971497;28;20085;-90
2023/09/14 02:27:14;;;;;;;1.50;0.85;;;;;;;18.64;62.38;99835.06;4971745;28;20469;-89
2023/09/14 02:29:40;;;;;;;3.33;1.92;;;;;;;18.42;62.88;99809.34;4971834;28;20034;-89
2023/09/14 02:32:09;;;;;;;6.35;2.92;;;;;;;18.58;62.97;99836.22;4971591;28;20125;-90
2023/09/14 02:34:34;;;;;;;1.35;1.20;;;;;;;18.30;62.83;99802.75;4970848;28;20031;-90
2023/09/14 02:37:00;;;;;;;4.53;2.55;;;;;;;18.43;62.73;99827.97;4972037;28;20030;-88
2023/09/14 02:39:25;;;;;;;2.55;2.35;;;;;;;18.28;62.43;99817.13;4968240;28;20121;-89
2023/09/14 02:41:51;;;;;;;2.53;1.92;;;;;;;17.79;63.50;99804.09;4961863;28;20035;-92
2023/09/14 02:44:16;;;;;;;3.45;3.13;;;;;;;17.51;64.06;99783.91;4954947;28;20032;-91
2023/09/14 02:46:42;;;;;;;0.57;0.57;;;;;;;17.68;64.00;99823.22;4935629;29;20042;-92
2023/09/14 02:49:07;;;;;;;2.50;2.25;;;;;;;17.65;64.10;99821.53;4952769;29;20061;-91
2023/09/14 02:51:33;;;;;;;2.08;1.40;;;;;;;17.80;64.36;99832.50;4952439;28;20062;-90
2023/09/14 02:53:58;;;;;;;5.22;1.77;;;;;;;17.85;64.03;99807.34;4935658;29;20039;-89
2023/09/14 02:56:35;;;;;;;4.25;1.83;;;;;;;17.87;64.11;99831.28;4967459;28;20046;-88
2023/09/14 02:59:00;;;;;;;1.55;1.35;;;;;;;17.88;64.25;99801.03;4971933;28;20051;-88
2023/09/14 03:01:28;;;;;;;1.80;1.17;;;;;;;18.05;64.12;99835.00;4972367;28;20489;-93
2023/09/14 03:03:53;;;;;;;5.80;1.60;;;;;;;18.12;64.97;99870.31;4954859;28;20093;-89
2023/09/14 03:06:19;;;;;;;4.00;3.63;;;;;;;17.82;65.10;99803.94;4971599;28;20460;-93
2023/09/14 03:08:44;;;;;;;4.00;2.47;;;;;;;17.99;64.99;99835.28;4972471;28;20154;-93
2023/09/14 03:11:10;;;;;;;5.90;3.60;;;;;;;17.88;65.91;99838.38;4971708;28;20070;-93
2023/09/14 03:16:57;;;;;;;2.45;2.10;;;;;;;17.77;66.01;99836.16;4971763;28;20093;-91
2023/09/14 03:19:24;;;;;;;2.15;1.67;;;;;;;17.55;66.21;99796.22;4971330;28;20027;-89
2023/09/14 03:21:49;;;;;;;2.28;1.40;;;;;;;17.62;66.21;99819.00;4971126;28;20042;-90
2023/09/14 03:24:15;;;;;;;4.70;3.22;;;;;;;17.51;66.66;99826.59;4975749;28;20081;-88
2023/09/14 03:26:40;;;;;;;1.42;1.15;;;;;;;17.54;65.95;99827.31;4970994;28;20035;-90
2023/09/14 03:29:06;;;;;;;5.40;1.80;;;;;;;17.65;66.01;99847.34;4975430;28;20065;-87
2023/09/14 03:31:32;;;;;;;2.63;2.13;;;;;;;17.32;66.73;99814.00;4969737;28;20026;-89
2023/09/14 03:33:58;;;;;;;3.90;1.90;;;;;;;17.39;66.33;99813.75;4957756;28;20037;-90
2023/09/14 03:36:26;;;;;;;2.95;1.85;;;;;;;17.44;66.40;99812.66;4971616;28;20031;-96
2023/09/14 03:38:51;;;;;;;1.63;0.95;;;;;;;17.32;66.33;99768.69;4954768;29;20046;-88
2023/09/14 03:41:17;;;;;;;2.97;2.35;;;;;;;17.14;66.35;99788.97;4967344;28;20424;-89
2023/09/14 03:43:43;;;;;;;1.25;1.13;;;;;;;17.26;66.19;99803.59;4989223;28;20038;-89
2023/09/14 03:46:13;;;;;;;2.72;1.77;;;;;;;17.41;67.19;99852.78;4952884;28;20055;-90
2023/09/14 03:48:40;;;;;;;2.08;1.73;;;;;;;17.27;67.71;99888.00;4956044;28;20247;-87
2023/09/14 03:51:07;;;;;;;2.75;1.73;;;;;;;16.97;68.01;99823.44;4954925;28;20055;-88
2023/09/14 03:53:32;;;;;;;9.52;2.22;;;;;;;16.87;67.32;99804.28;4941237;29;20031;-88
2023/09/14 03:55:59;;;;;;;5.10;2.25;;;;;;;17.04;66.31;99824.94;4953665;28;20039;-92
2023/09/14 03:58:26;;;;;;;4.05;3.17;;;;;;;16.99;66.62;99818.91;4974489;28;20110;-90
2023/09/14 04:00:53;;;;;;;5.13;1.63;;;;;;;16.81;66.10;99793.84;4971978;28;20039;-88
2023/09/14 04:03:18;;;;;;;2.33;1.83;;;;;;;16.95;66.78;99831.47;4966355;28;20466;-91
2023/09/14 04:05:45;;;;;;;3.97;1.88;;;;;;;16.58;67.57;99826.69;4963298;28;20046;-90
2023/09/14 04:08:11;;;;;;;2.97;1.83;;;;;;;16.79;67.50;99844.50;4966802;28;20478;-89
2023/09/14 04:10:38;;;;;;;5.72;1.92;;;;;;;16.91;67.42;99829.84;4961733;28;20035;-89
2023/09/14 04:13:28;;;;;;;8.85;1.40;;;;;;;17.16;67.10;99885.75;4962405;28;20046;-88
2023/09/14 04:15:54;;;;;;;13.27;1.70;;;;;;;16.93;66.91;99843.13;4973123;28;20026;-88
2023/09/14 04:18:20;;;;;;;4.75;2.72;;;;;;;16.73;66.78;99799.47;4972413;28;20043;-90
2023/09/14 04:20:47;;;;;;;1.90;1.52;;;;;;;16.77;66.27;99802.84;4967327;28;20031;-88
2023/09/14 04:23:12;;;;;;;2.35;2.05;;;;;;;17.11;66.01;99841.53;4965715;28;20038;-86
2023/09/14 04:25:44;;;;;;;3.15;1.23;;;;;;;17.18;65.69;99835.03;4973330;28;20035;-87
2023/09/14 04:28:13;;;;;;;3.78;1.63;;;;;;;17.25;65.13;99817.00;4967004;28;20067;-88
2023/09/14 04:30:47;;;;;;;1.80;1.42;;;;;;;17.14;65.22;99826.28;4968274;28;20553;-89
2023/09/14 04:33:14;;;;;;;2.92;1.75;;;;;;;17.07;66.14;99813.25;4971272;28;20493;-90
2023/09/14 04:35:40;;;;;;;2.58;1.60;;;;;;;17.13;65.64;99826.34;4953980;29;20094;-85
2023/09/14 04:38:06;;;;;;;3.47;2.58;;;;;;;17.52;66.20;99898.53;4954065;29;20051;-90
2023/09/14 04:40:37;;;;;;;4.03;2.38;;;;;;;17.15;65.76;99821.84;4954456;29;20042;-89
2023/09/14 04:43:02;;;;;;;7.57;3.40;;;;;;;17.62;65.55;99872.34;4940764;28;20697;-85
2023/09/14 04:45:28;;;;;;;1.75;1.30;;;;;;;17.32;65.67;99802.50;4971931;28;20039;-90
2023/09/14 04:47:53;;;;;;;3.60;2.45;;;;;;;17.48;66.67;99853.38;4961996;28;20090;-87
2023/09/14 04:50:19;;;;;;;3.30;2.70;;;;;;;17.32;67.64;99835.34;4970131;28;20045;-88
2023/09/14 04:52:44;;;;;;;4.32;3.22;;;;;;;17.38;68.66;99846.69;4973436;28;20023;-87
2023/09/14 04:55:10;;;;;;;1.92;1.50;;;;;;;17.30;68.66;99833.66;4973567;28;20049;-94
2023/09/14 04:57:36;;;;;;;4.35;3.60;;;;;;;17.70;68.83;99856.03;4956149;28;20417;-94
2023/09/14 05:00:04;;;;;;;5.05;2.40;;;;;;;17.65;68.52;99855.34;4956256;28;20031;-87
2023/09/14 05:02:30;;;;;;;13.55;2.70;;;;;;;17.55;68.26;99836.22;4973140;28;20030;-91
2023/09/14 05:04:56;;;;;;;7.28;3.05;;;;;;;17.72;68.12;99836.38;4972926;28;20457;-93
2023/09/14 05:07:21;;;;;;;2.40;2.10;;;;;;;17.72;67.52;99819.50;4972686;28;20143;-91
2023/09/14 05:09:47;;;;;;;3.17;2.28;;;;;;;17.90;67.41;99817.84;4954482;29;20030;-89
2023/09/14 05:12:13;;;;;;;5.18;3.20;;;;;;;17.79;67.06;99801.41;4967252;28;20051;-85
2023/09/14 05:14:39;;;;;;;2.13;1.95;;;;;;;18.33;66.63;99856.00;4972387;28;20497;-84
2023/09/14 05:17:04;;;;;;;11.95;3.95;;;;;;;18.11;65.52;99799.19;4972228;28;20031;-85
2023/09/14 05:19:30;;;;;;;5.28;2.08;;;;;;;18.76;66.06;99925.34;4972921;28;20090;-86
2023/09/14 05:21:55;;;;;;;3.30;2.05;;;;;;;18.46;66.00;99847.44;4954089;28;20480;-88
2023/09/14 05:24:21;;;;;;;6.00;1.63;;;;;;;18.80;65.51;99894.88;4972193;28;20054;-85
2023/09/14 05:26:48;;;;;;;3.25;2.90;;;;;;;18.65;65.93;99884.91;4972823;28;20061;-85
2023/09/14 05:29:14;;;;;;;3.90;2.65;;;;;;;18.95;64.70;99882.63;4972031;28;20030;-85
2023/09/14 05:31:39;;;;;;;3.78;3.40;;;;;;;19.09;64.73;99890.00;4972870;28;20158;-84
2023/09/14 05:34:06;;;;;;;4.53;2.53;;;;;;;19.47;64.28;99906.03;4973878;28;20022;-85
2023/09/14 05:36:32;;;;;;;3.72;3.40;;;;;;;19.54;64.04;99874.50;4981800;28;20034;-84
2023/09/14 05:38:57;;;;;;;3.97;2.15;;;;;;;19.64;63.02;99919.44;4966663;28;20086;-85
2023/09/14 05:41:23;;;;;;;5.45;4.13;;;;;;;19.51;63.12;99891.59;4971413;28;20023;-90
2023/09/14 05:43:48;;;;;;;5.97;2.63;;;;;;;19.39;62.98;99860.09;4970051;28;20065;-92
2023/09/14 05:46:13;;;;;;;3.15;2.17;;;;;;;19.61;63.36;99895.53;4970052;28;20027;-91
2023/09/14 05:48:39;;;;;;;4.70;2.35;;;;;;;19.32;63.05;99846.13;4954452;28;20478;-90
2023/09/14 05:51:04;;;;;;;5.90;3.45;;;;;;;19.49;62.92;99845.28;4970801;28;20034;-92
2023/09/14 05:53:34;;;;;;;16.00;2.58;;;;;;;20.01;61.53;99872.13;4962649;28;20031;-92
2023/09/14 05:56:01;;;;;;;2.50;2.13;;;;;;;20.28;60.90;99877.03;4966693;28;20452;-92
2023/09/14 05:58:26;;;;;;;3.00;2.08;;;;;;;20.67;59.42;99843.72;4951777;28;20111;-92
2023/09/14 06:00:52;;;;;;;5.18;3.80;;;;;;;20.75;58.60;99837.94;4971162;28;20035;-91
2023/09/14 06:03:18;;;;;;;4.32;2.35;;;;;;;21.15;57.75;99853.59;4953821;28;20026;-93
2023/09/14 06:05:44;;;;;;;5.10;2.75;;;;;;;21.30;57.69;99855.41;4972164;28;20027;-91
2023/09/14 06:08:10;;;;;;;3.03;2.72;;;;;;;21.24;57.62;99835.19;4971874;28;20512;-92
2023/09/14 06:10:36;;;;;;;4.70;2.35;;;;;;;21.66;57.08;99837.31;4972160;28;20054;-91
2023/09/14 06:13:01;;;;;;;6.65;2.00;;;;;;;21.82;56.94;99852.41;4971788;28;20542;-95
2023/09/14 06:15:27;;;;;;;11.38;3.38;;;;;;;21.40;56.44;99816.38;4953780;28;20117;-94
2023/09/14 06:17:58;;;;;;;5.68;2.58;;;;;;;22.09;55.22;99883.97;5060732;27;1688938;-92
2023/09/14 06:20:24;;;;;;;5.15;3.30;;;;;;;22.21;55.07;99852.81;5086058;28;20037;-91
2023/09/14 06:22:49;;;;;;;3.53;2.75;;;;;;;22.70;54.14;99873.13;5085325;28;20494;-90
2023/09/14 06:25:15;;;;;;;7.03;2.15;;;;;;;23.33;53.34;99931.06;5087538;28;20032;-92
2023/09/14 06:27:40;;;;;;;5.50;3.38;;;;;;;22.67;52.78;99855.38;5086170;28;20103;-90
2023/09/14 06:30:08;;;;;;;4.10;3.17;;;;;;;22.97;52.71;99851.72;5087310;28;20036;-90
2023/09/14 06:32:33;;;;;;;5.90;2.33;;;;;;;23.22;52.51;99847.47;5086526;28;20107;-91
2023/09/14 06:34:59;;;;;;;3.60;2.42;;;;;;;23.49;51.37;99885.16;5086740;28;20119;-90
2023/09/14 06:37:24;;;;;;;3.20;2.28;;;;;;;23.37;51.13;99875.19;5094262;28;20070;-92
2023/09/14 06:39:50;;;;;;;4.07;2.28;;;;;;;23.36;51.32;99858.19;5106127;28;20594;-91
2023/09/14 06:42:15;;;;;;;3.85;1.90;;;;;;;23.82;50.95;99874.94;5106553;28;20032;-91
2023/09/14 06:44:41;;;;;;;4.72;2.95;;;;;;;23.34;51.69;99880.78;5106810;28;20131;-92
2023/09/14 06:47:07;;;;;;;3.58;2.20;;;;;;;23.73;51.02;99862.97;5106395;28;20114;-88
2023/09/14 06:49:32;;;;;;;3.15;2.15;;;;;;;24.43;50.40;99900.41;5106306;28;20031;-89
2023/09/14 06:51:58;;;;;;;3.72;2.78;;;;;;;24.40;49.87;99905.16;5106574;28;20035;-89
2023/09/14 06:54:23;;;;;;;3.60;2.17;;;;;;;24.74;48.26;99879.41;5106484;28;20123;-91
2023/09/14 06:56:49;;;;;;;2.95;2.22;;;;;;;24.66;47.14;99858.38;5106729;28;20421;-89
2023/09/14 06:59:14;;;;;;;3.65;2.60;;;;;;;25.32;46.66;99877.06;5105789;28;20962;-89
2023/09/14 07:01:40;;;;;;;3.55;2.70;;;;;;;25.57;45.26;99868.97;5099403;28;20031;-92
2023/09/14 07:04:06;;;;;;;3.60;2.30;;;;;;;25.72;46.11;99895.69;5078590;28;20040;-92
2023/09/14 07:06:37;;;;;;;3.13;2.25;;;;;;;25.29;46.69;99873.72;5106498;28;20483;-91
2023/09/14 07:09:06;;;;;;;5.75;2.95;;;;;;;25.79;47.00;99896.09;5105108;28;20084;-90
2023/09/14 07:11:34;;;;;;;4.50;2.40;;;;;;;25.82;45.73;99860.72;5105506;28;20024;-90
2023/09/14 07:14:00;;;;;;;3.35;2.08;;;;;;;26.15;45.30;99861.88;5106853;28;20107;-92
2023/09/14 07:17:33;;;;;;;1.98;1.58;;;;;;;25.70;44.81;99849.03;5112384;28;20055;-92
2023/09/14 07:20:04;;;;;;;4.20;3.45;;;;;;;25.74;43.97;99839.69;4946172;29;20529;-91
2023/09/14 07:22:30;;;;;;;3.30;2.58;;;;;;;25.67;44.70;99837.59;4945842;29;20114;-90
2023/09/14 07:24:55;;;;;;;4.07;2.50;;;;;;;26.03;44.59;99854.72;4930701;29;20134;-90
2023/09/14 07:27:24;;;;;;;4.82;3.70;;;;;;;26.64;43.58;99867.94;4944214;29;20087;-88
2023/09/14 07:29:50;;;;;;;3.95;2.13;;;;;;;26.66;41.99;99854.34;4905753;29;20044;-90
2023/09/14 07:32:16;;;;;;;19.85;3.03;;;;;;;26.75;41.97;99869.84;4914525;29;20153;-89
2023/09/14 07:34:41;;;;;;;3.85;1.83;;;;;;;26.31;44.89;99834.50;4913862;29;20438;-89
2023/09/14 07:37:07;;;;;;;3.97;2.47;;;;;;;26.25;42.56;99860.16;4913812;29;20127;-89
2023/09/14 07:39:33;;;;;;;2.97;2.20;;;;;;;26.08;43.93;99866.88;4913762;29;20510;-89
2023/09/14 07:41:59;;;;;;;2.78;1.35;;;;;;;26.15;44.13;99861.00;4913661;29;20577;-89
2023/09/14 07:44:24;;;;;;;3.47;2.47;;;;;;;26.58;44.38;99863.88;4913997;29;20048;-89
2023/09/14 07:46:50;;;;;;;6.05;2.47;;;;;;;27.02;42.48;99857.75;4913795;29;20040;-89
2023/09/14 07:49:15;;;;;;;3.10;2.25;;;;;;;27.03;42.62;99845.97;4913530;29;20064;-88
2023/09/14 07:51:41;;;;;;;2.38;1.65;;;;;;;27.13;42.48;99882.13;4897933;29;20068;-89
2023/09/14 07:54:06;;;;;;;4.82;2.42;;;;;;;26.62;41.66;99840.19;4964323;28;20500;-89
2023/09/14 07:56:32;;;;;;;5.60;3.30;;;;;;;26.77;42.01;99852.50;5061179;28;20076;-90
2023/09/14 07:58:57;;;;;;;5.78;3.03;;;;;;;26.86;41.18;99836.50;5093201;28;20032;-90
2023/09/14 08:01:23;;;;;;;5.13;3.17;;;;;;;27.11;41.22;99843.47;5091247;28;20028;-86
2023/09/14 08:03:49;;;;;;;3.08;2.58;;;;;;;27.24;41.06;99854.19;5099876;28;20057;-86
2023/09/14 08:06:19;;;;;;;3.33;1.95;;;;;;;27.54;41.40;99820.97;5072711;28;20410;-88
2023/09/14 08:08:45;;;;;;;3.38;1.58;;;;;;;27.69;40.42;99876.59;5090627;28;20028;-90
2023/09/14 08:11:11;;;;;;;2.75;1.88;;;;;;;27.54;40.64;99839.94;5073133;28;20040;-88
2023/09/14 08:13:37;;;;;;;17.52;2.83;;;;;;;27.07;45.01;99840.16;5073973;28;20032;-88
2023/09/14 08:16:04;;;;;;;3.35;2.58;;;;;;;27.90;42.21;99854.09;5090757;28;20038;-88
2023/09/14 08:18:29;;;;;;;6.88;3.88;;;;;;;28.10;38.95;99848.84;5091552;28;20039;-89
2023/09/14 08:20:55;;;;;;;3.28;1.85;;;;;;;27.55;40.03;99828.13;5072865;28;20024;-89
2023/09/14 08:23:20;;;;;;;2.33;1.65;;;;;;;28.15;40.20;99884.56;5091578;28;20398;-89
2023/09/14 08:25:47;;;;;;;9.73;3.25;;;;;;;27.72;41.37;99839.41;5090842;28;20038;-89
2023/09/14 08:28:14;;;;;;;5.28;2.75;;;;;;;27.51;42.04;99838.38;5090691;28;20059;-89
2023/09/14 08:30:44;;;;;;;4.85;2.83;;;;;;;27.76;41.03;99827.31;5090951;28;20024;-90
2023/09/14 08:33:13;;;;;;;3.35;2.22;;;;;;;27.62;40.72;99853.72;5091153;28;20054;-89
2023/09/14 08:35:39;;;;;;;8.70;4.60;;;;;;;27.41;39.86;99806.78;5090675;28;20024;-89
2023/09/14 08:38:06;;;;;;;5.25;2.83;;;;;;;27.02;40.80;99809.91;5089851;28;20035;-89
2023/09/14 08:40:32;;;;;;;4.55;1.75;;;;;;;27.14;41.59;99791.78;5090253;28;20023;-89
2023/09/14 08:43:02;;;;;;;6.78;3.30;;;;;;;27.41;41.18;99795.94;5090027;28;20031;-88
2023/09/14 08:45:32;;;;;;;4.63;3.00;;;;;;;27.40;41.81;99788.78;5090583;28;20054;-88
2023/09/14 08:48:01;;;;;;;3.35;2.20;;;;;;;27.78;40.56;99809.09;5090750;28;20032;-87
2023/09/14 08:50:30;;;;;;;3.33;1.33;;;;;;;28.05;40.06;99838.41;5091111;28;20104;-89
2023/09/14 08:52:56;;;;;;;3.88;2.60;;;;;;;28.09;39.40;99780.22;5071660;28;20081;-89
2023/09/14 08:55:24;;;;;;;5.47;4.07;;;;;;;28.39;38.33;99802.91;5090362;28;20032;-90
2023/09/14 08:57:51;;;;;;;2.00;1.45;;;;;;;28.22;39.73;99801.69;5089759;28;20032;-93
2023/09/14 09:00:18;;;;;;;4.35;2.60;;;;;;;28.09;40.59;99790.22;5090195;28;20024;-90
2023/09/14 09:02:47;;;;;;;3.63;2.50;;;;;;;28.26;41.73;99832.97;5090364;28;20528;-88
2023/09/14 09:05:17;;;;;;;3.35;2.05;;;;;;;27.94;42.80;99808.63;5072103;28;20454;-88
2023/09/14 09:07:48;;;;;;;3.63;2.15;;;;;;;28.26;40.11;99773.31;5089393;28;20032;-89
2023/09/14 09:10:21;;;;;;;3.35;2.35;;;;;;;28.72;39.73;99828.09;5071240;28;20115;-88
2023/09/14 09:12:46;;;;;;;3.53;2.00;;;;;;;28.53;39.42;99780.88;5072309;28;20032;-88
2023/09/14 09:15:16;;;;;;;2.92;2.00;;;;;;;28.34;39.48;99778.91;5098166;28;20151;-87
2023/09/14 09:17:44;;;;;;;5.00;2.85;;;;;;;28.34;38.79;99753.66;5110291;28;20051;-86
2023/09/14 09:20:16;;;;;;;5.38;3.72;;;;;;;28.20;39.36;99787.41;5109838;28;20441;-88
2023/09/14 09:22:45;;;;;;;11.73;4.05;;;;;;;28.49;40.48;99800.28;5091002;28;20027;-87
2023/09/14 09:25:12;;;;;;;6.22;4.45;;;;;;;27.74;39.70;99724.47;5110304;28;20034;-86
2023/09/14 09:27:40;;;;;;;6.63;3.15;;;;;;;27.63;40.06;99736.22;5106495;28;20035;-87
2023/09/14 09:30:08;;;;;;;4.38;3.45;;;;;;;28.02;39.54;99755.50;5090567;28;20490;-86
2023/09/14 09:32:38;;;;;;;4.55;3.05;;;;;;;27.84;40.47;99748.94;5103422;28;20035;-87
2023/09/14 09:35:21;;;;;;;6.28;2.72;;;;;;;28.12;38.72;99746.56;5103488;28;20027;-89
2023/09/14 09:37:50;;;;;;;3.90;2.67;;;;;;;28.47;38.56;99738.00;5107121;28;20020;-91
2023/09/14 09:40:23;;;;;;;2.58;2.00;;;;;;;28.59;39.02;99706.22;5089574;28;20027;-89
2023/09/14 09:42:50;;;;;;;2.78;2.08;;;;;;;28.47;38.49;99712.72;5090301;28;20044;-90
2023/09/14 09:45:19;;;;;;;5.18;2.25;;;;;;;28.91;37.50;99707.88;5094270;28;20053;-91
2023/09/14 09:47:45;;;;;;;2.20;1.48;;;;;;;28.91;37.20;99749.44;5091127;28;20123;-87
2023/09/14 09:50:14;;;;;;;1.13;0.93;;;;;;;28.42;37.96;99715.00;5109604;28;20032;-86
2023/09/14 09:52:44;;;;;;;10.05;2.20;;;;;;;28.23;38.39;99703.06;5109351;28;20031;-87
2023/09/14 09:55:21;;;;;;;3.90;1.42;;;;;;;28.52;38.85;99688.78;5098916;28;20040;-86
2023/09/14 09:57:52;;;;;;;4.28;3.13;;;;;;;28.50;38.41;99721.47;5091237;28;20032;-89
2023/09/14 10:00:19;;;;;;;4.22;2.38;;;;;;;28.44;38.40;99697.59;5089272;28;20024;-88
2023/09/14 10:02:47;;;;;;;3.67;2.67;;;;;;;28.58;38.22;99715.34;5110858;28;20401;-90
2023/09/14 10:05:13;;;;;;;3.35;2.05;;;;;;;28.58;38.74;99686.38;5116686;28;20024;-89
2023/09/14 10:07:40;;;;;;;3.70;2.20;;;;;;;28.92;37.77;99682.44;5114882;28;20027;-93
2023/09/14 10:10:10;;;;;;;3.45;1.65;;;;;;;28.91;37.78;99695.13;5111784;28;20105;-90
2023/09/14 10:12:40;;;;;;;2.20;1.50;;;;;;;28.78;37.55;99672.88;5115358;28;20172;-91
2023/09/14 10:15:08;;;;;;;2.92;2.30;;;;;;;29.14;37.35;99708.47;5112616;28;20027;-90
2023/09/14 10:17:34;;;;;;;6.60;1.38;;;;;;;29.22;37.23;99716.78;5108122;28;20055;-89
2023/09/14 10:20:09;;;;;;;5.00;3.15;;;;;;;29.11;37.49;99701.44;5071040;28;20039;-90
2023/09/14 10:22:37;;;;;;;4.55;3.17;;;;;;;29.30;37.55;99691.63;5094180;28;20492;-93
2023/09/14 10:25:06;;;;;;;4.97;2.35;;;;;;;29.43;36.74;99696.78;5070255;28;20030;-92
2023/09/14 10:27:33;;;;;;;3.70;2.38;;;;;;;29.08;36.09;99662.88;5088978;28;20024;-91
2023/09/14 10:30:01;;;;;;;3.15;1.98;;;;;;;29.35;35.93;99688.47;5100441;28;21203;-89
2023/09/14 10:32:29;;;;;;;2.92;2.55;;;;;;;29.44;35.63;99653.16;5104897;28;20058;-91
2023/09/14 10:34:59;;;;;;;2.28;1.98;;;;;;;29.75;35.02;99680.13;5082651;28;20038;-94
2023/09/14 10:37:26;;;;;;;4.60;3.35;;;;;;;29.73;35.36;99681.25;5101720;28;20031;-93
2023/09/14 10:39:53;;;;;;;2.50;1.25;;;;;;;29.77;35.70;99691.69;5072899;28;20053;-95
2023/09/14 10:42:18;;;;;;;2.40;1.88;;;;;;;29.91;35.52;99682.25;5079310;28;20024;-91
2023/09/14 10:44:44;;;;;;;6.03;5.28;;;;;;;29.87;34.61;99671.81;5076741;28;20020;-92
2023/09/14 10:47:15;;;;;;;4.45;2.50;;;;;;;30.00;33.97;99665.03;5105415;28;20031;-90
2023/09/14 10:49:43;;;;;;;8.45;4.28;;;;;;;29.89;33.17;99648.03;5094860;28;20102;-87
2023/09/14 10:52:08;;;;;;;2.55;2.10;;;;;;;29.95;33.28;99645.63;5095818;28;20497;-89
2023/09/14 10:54:35;;;;;;;4.05;2.13;;;;;;;29.86;33.58;99656.50;5102032;28;20046;-91
2023/09/14 10:57:10;;;;;;;2.38;2.03;;;;;;;29.94;33.73;99660.19;5109114;28;20040;-89
2023/09/14 10:59:52;;;;;;;2.60;1.60;;;;;;;29.88;33.46;99646.34;5093425;28;20023;-87
2023/09/14 11:02:43;;;;;;;3.03;1.90;;;;;;;30.25;33.51;99689.00;5078452;28;20032;-89
2023/09/14 11:05:19;;;;;;;4.15;2.75;;;;;;;30.44;33.44;99655.41;5086237;28;20447;-89
2023/09/14 11:07:50;;;;;;;1.17;1.02;;;;;;;30.20;34.34;99647.78;5092844;28;20081;-89
2023/09/14 11:10:22;;;;;;;2.92;1.08;;;;;;;30.42;33.35;99658.28;5091771;28;20741;-92
2023/09/14 11:12:49;;;;;;;2.90;1.75;;;;;;;30.56;33.77;99659.66;5099038;28;20024;-91
2023/09/14 11:15:22;;;;;;;6.35;2.47;;;;;;;30.60;32.09;99622.09;5112995;28;20038;-89
2023/09/14 11:17:57;;;;;;;2.60;2.03;;;;;;;30.46;32.47;99658.84;5099235;28;20052;-88
2023/09/14 11:20:22;;;;;;;7.80;1.75;;;;;;;30.97;32.47;99683.72;5102668;28;20032;-90
2023/09/14 11:22:52;;;;;;;1.50;0.93;;;;;;;30.77;32.62;99607.66;5092777;28;20043;-90
2023/09/14 11:25:28;;;;;;;3.05;1.77;;;;;;;30.80;32.00;99633.69;5093175;28;20023;-88
2023/09/14 11:27:56;;;;;;;4.78;2.05;;;;;;;30.65;31.70;99615.19;5103879;28;20493;-89
2023/09/14 11:30:24;;;;;;;3.10;1.80;;;;;;;30.88;31.75;99629.19;5112657;28;20568;-89
2023/09/14 11:32:50;;;;;;;2.42;1.48;;;;;;;30.82;32.05;99643.41;5107156;28;20395;-88
2023/09/14 11:35:15;;;;;;;3.35;2.05;;;;;;;30.61;32.71;99599.31;5091704;28;20058;-87
2023/09/14 11:37:41;;;;;;;1.48;1.10;;;;;;;30.79;33.25;99607.50;5096378;28;20123;-88
2023/09/14 11:40:15;;;;;;;1.23;0.95;;;;;;;30.88;32.83;99599.22;5083584;28;20035;-90
2023/09/14 11:43:06;;;;;;;9.00;1.30;;;;;;;31.43;31.66;99646.34;5095520;28;20030;-90
2023/09/14 11:45:35;;;;;;;2.92;1.88;;;;;;;31.13;31.50;99606.78;5105121;28;20019;-87
2023/09/14 11:48:01;;;;;;;1.88;1.17;;;;;;;31.33;32.07;99621.09;5105010;28;20501;-90
2023/09/14 11:50:28;;;;;;;1.98;1.42;;;;;;;31.07;33.04;99600.09;5102521;28;20056;-89
2023/09/14 11:52:55;;;;;;;4.75;1.92;;;;;;;31.43;31.33;99619.09;5094333;28;20104;-89